Terminal Aerodrome Forecast
Issued by NWS Twin Cities, MN

Home | Current Version | Previous Version | Graphics & Text | Print | Product List | Glossary On
Versions: 1 2 3 4 5 6 7 8 9 10 11 12 13 14 15 16 17 18 19 20 21 22 23 24 25 26 27
088
FTUS43 KMPX 272326
TAFMSP
TAF
KMSP 272326Z 2800/2906 18014G18KT P6SM SCT110 BKN200
     FM280600 15012G18KT P6SM VCSH BKN050 OVC080
     FM280800 15012G20KT 6SM SHRA BKN035 OVC050
      TEMPO 2809/2813 3SM TSRA BR BKN020CB
     FM281300 17013G22KT P6SM -SHRA BKN020 OVC040
     FM281700 21014G24KT P6SM SCT025 BKN035
     FM282100 24009KT P6SM VCTS OVC035CB
     FM290300 29004KT P6SM SCT110=

USA.gov is the U.S. government's official web portal to all federal, state and local government web resources and services.